createdAt,value
2022-08-26T00:01:44.303Z,7.40
2022-08-26T00:04:12.918Z,7.00
2022-08-26T00:06:42.692Z,7.70
2022-08-26T00:09:15.992Z,7.20
2022-08-26T00:11:44.382Z,7.50
2022-08-26T00:14:12.034Z,7.60
2022-08-26T00:16:41.075Z,8.00
2022-08-26T00:19:17.263Z,7.00
2022-08-26T00:21:44.399Z,6.90
2022-08-26T00:24:11.244Z,7.50
2022-08-26T00:26:39.439Z,6.30
2022-08-26T00:29:08.598Z,7.70
2022-08-26T00:31:36.734Z,7.80
2022-08-26T00:34:04.566Z,7.40
2022-08-26T00:36:32.085Z,7.60
2022-08-26T00:38:59.281Z,7.80
2022-08-26T00:41:26.524Z,7.60
2022-08-26T00:43:54.600Z,8.00
2022-08-26T00:46:27.013Z,7.00
2022-08-26T00:49:11.965Z,7.20
2022-08-26T00:51:53.739Z,7.30
2022-08-26T00:54:24.469Z,8.00
2022-08-26T00:57:01.049Z,7.40
2022-08-26T00:59:32.815Z,7.60
2022-08-26T01:02:02.774Z,7.40
2022-08-26T01:04:33.473Z,7.60
2022-08-26T01:07:01.331Z,7.40
2022-08-26T01:09:28.629Z,7.40
2022-08-26T01:11:59.799Z,7.90
2022-08-26T01:14:31.116Z,8.40
2022-08-26T01:16:59.013Z,8.20
2022-08-26T01:19:30.633Z,8.90
2022-08-26T01:22:02.591Z,7.40
2022-08-26T01:24:31.158Z,7.90
2022-08-26T01:27:03.604Z,7.20
2022-08-26T01:29:33.970Z,8.80
2022-08-26T01:32:05.129Z,7.20
2022-08-26T01:34:36.347Z,8.80
2022-08-26T01:37:11.694Z,7.90
2022-08-26T01:39:43.862Z,9.60
2022-08-26T01:42:14.978Z,8.90
2022-08-26T01:44:51.670Z,8.20
2022-08-26T01:47:21.670Z,8.60
2022-08-26T01:49:53.706Z,7.40
2022-08-26T01:52:27.642Z,8.50
2022-08-26T01:57:23.907Z,7.90
2022-08-26T01:59:53.271Z,8.50
2022-08-26T02:02:20.755Z,8.10
2022-08-26T02:04:53.536Z,9.00
2022-08-26T02:07:21.799Z,8.40
2022-08-26T02:09:49.583Z,9.10
2022-08-26T02:12:19.754Z,9.00
2022-08-26T02:14:59.870Z,8.30
2022-08-26T02:17:48.356Z,9.30
2022-08-26T02:20:20.978Z,8.90
2022-08-26T02:22:48.446Z,8.50
2022-08-26T02:25:25.274Z,8.10
2022-08-26T02:27:52.671Z,8.30
2022-08-26T02:30:24.330Z,8.50
2022-08-26T02:32:53.254Z,8.40
2022-08-26T02:35:23.198Z,8.20
2022-08-26T02:37:52.131Z,9.00
2022-08-26T02:40:28.173Z,9.70
2022-08-26T02:42:55.965Z,9.10
2022-08-26T02:45:26.424Z,8.80
2022-08-26T02:47:54.185Z,9.00
2022-08-26T02:50:25.743Z,8.20
2022-08-26T02:52:53.094Z,7.80
2022-08-26T02:55:20.520Z,8.00
2022-08-26T02:57:47.502Z,8.40
2022-08-26T03:00:15.569Z,8.30
2022-08-26T03:02:42.509Z,8.40
2022-08-26T03:05:11.445Z,7.90
2022-08-26T03:07:38.722Z,8.00
2022-08-26T03:10:08.780Z,7.80
2022-08-26T03:12:35.794Z,7.20
2022-08-26T03:15:03.357Z,7.30
2022-08-26T03:17:44.451Z,8.20
2022-08-26T03:20:11.568Z,7.80
2022-08-26T03:22:40.671Z,7.90
2022-08-26T03:25:09.934Z,7.30
2022-08-26T03:27:36.863Z,7.00
2022-08-26T03:30:20.997Z,7.60
2022-08-26T03:32:47.828Z,7.70
2022-08-26T03:35:15.327Z,7.40
2022-08-26T03:37:42.586Z,7.80
2022-08-26T03:40:11.667Z,7.10
2022-08-26T03:42:40.799Z,7.60
2022-08-26T03:45:13.252Z,7.70
2022-08-26T03:47:42.867Z,7.60
2022-08-26T03:50:13.149Z,7.30
2022-08-26T03:52:43.694Z,7.10
2022-08-26T03:55:12.074Z,7.80
2022-08-26T03:57:39.418Z,6.70
2022-08-26T04:00:09.192Z,7.10
2022-08-26T04:02:36.349Z,7.20
2022-08-26T04:05:03.323Z,7.10
2022-08-26T04:07:32.088Z,7.60
2022-08-26T04:10:00.181Z,7.30
2022-08-26T04:12:27.187Z,8.00
2022-08-26T04:14:54.061Z,7.50
2022-08-26T04:17:25.900Z,7.00
2022-08-26T04:19:54.168Z,6.50
2022-08-26T04:22:24.859Z,6.30
2022-08-26T04:24:52.455Z,7.20
2022-08-26T04:27:19.649Z,7.30
2022-08-26T04:29:47.739Z,6.80
2022-08-26T04:32:15.660Z,7.10
2022-08-26T04:34:43.906Z,7.30
2022-08-26T04:37:13.331Z,6.80
2022-08-26T04:39:40.537Z,7.00
2022-08-26T04:42:07.416Z,7.30
2022-08-26T04:44:36.399Z,7.50
2022-08-26T04:47:03.423Z,6.80
2022-08-26T04:49:35.257Z,6.90
2022-08-26T04:52:03.931Z,7.30
2022-08-26T04:54:31.773Z,6.90
2022-08-26T04:56:59.309Z,7.40
2022-08-26T04:59:26.315Z,7.80
2022-08-26T05:01:57.568Z,7.00
2022-08-26T05:04:24.817Z,7.10
2022-08-26T05:06:53.419Z,7.00
2022-08-26T05:09:22.728Z,7.10
2022-08-26T05:11:52.223Z,6.60
2022-08-26T05:14:20.962Z,6.90
2022-08-26T05:16:48.071Z,6.60
2022-08-26T05:19:19.274Z,6.50
2022-08-26T05:21:48.524Z,6.80
2022-08-26T05:24:17.859Z,6.20
2022-08-26T05:26:44.950Z,6.80
2022-08-26T05:29:12.470Z,6.70
2022-08-26T05:31:39.292Z,6.80
2022-08-26T05:34:06.988Z,6.30
2022-08-26T05:36:36.992Z,6.20
2022-08-26T05:39:10.447Z,6.00
2022-08-26T05:41:41.243Z,6.90
2022-08-26T05:44:11.047Z,5.90
2022-08-26T05:46:39.717Z,6.00
2022-08-26T05:49:12.534Z,5.90
2022-08-26T05:51:41.841Z,5.60
2022-08-26T05:54:10.384Z,5.50
2022-08-26T05:56:39.041Z,6.00
2022-08-26T05:59:10.899Z,6.00
2022-08-26T06:01:43.682Z,6.00
2022-08-26T06:04:12.070Z,5.60
2022-08-26T06:06:41.502Z,5.20
2022-08-26T06:09:11.233Z,5.90
2022-08-26T06:11:39.651Z,5.80
2022-08-26T06:14:08.566Z,5.50
2022-08-26T06:16:38.752Z,5.70
2022-08-26T06:19:10.732Z,5.30
2022-08-26T06:21:41.290Z,5.40
2022-08-26T06:24:28.325Z,5.70
2022-08-26T06:26:57.792Z,5.30
2022-08-26T06:29:26.427Z,5.20
2022-08-26T06:31:56.125Z,5.50
2022-08-26T06:34:40.677Z,5.70
2022-08-26T06:37:09.018Z,4.20
2022-08-26T06:39:35.866Z,4.10
2022-08-26T06:42:08.711Z,5.00
2022-08-26T06:44:37.999Z,4.70
2022-08-26T06:47:07.913Z,4.00
2022-08-26T06:49:35.128Z,4.40
2022-08-26T06:52:02.559Z,4.50
2022-08-26T06:54:31.805Z,4.10
2022-08-26T06:56:59.424Z,4.40
2022-08-26T06:59:26.252Z,4.20
2022-08-26T07:01:54.797Z,4.40
2022-08-26T07:04:24.584Z,4.40
2022-08-26T07:06:54.270Z,4.30
2022-08-26T07:09:23.997Z,4.30
2022-08-26T07:11:52.050Z,3.90
2022-08-26T07:14:21.498Z,4.40
2022-08-26T07:16:50.654Z,3.90
2022-08-26T07:19:30.368Z,3.80
2022-08-26T07:22:02.252Z,3.80
2022-08-26T07:24:31.238Z,3.90
2022-08-26T07:27:01.664Z,3.90
2022-08-26T07:29:30.890Z,4.20
2022-08-26T07:31:59.452Z,4.40
2022-08-26T07:34:27.334Z,4.00
2022-08-26T07:36:55.273Z,4.10
2022-08-26T07:39:23.014Z,3.70
2022-08-26T07:41:50.394Z,3.90
2022-08-26T07:44:18.036Z,3.60
2022-08-26T07:46:51.286Z,4.20
2022-08-26T07:49:20.926Z,4.00
2022-08-26T07:51:48.856Z,4.40
2022-08-26T07:54:16.787Z,3.90
2022-08-26T07:56:44.670Z,3.60
2022-08-26T07:59:14.068Z,3.60
2022-08-26T08:01:44.733Z,3.50
2022-08-26T08:04:15.421Z,3.60
2022-08-26T08:06:43.860Z,4.10
2022-08-26T08:09:13.329Z,3.90
2022-08-26T08:11:41.471Z,3.70
2022-08-26T08:14:11.747Z,4.00
2022-08-26T08:16:46.128Z,3.50
2022-08-26T08:19:15.700Z,3.80
2022-08-26T08:21:44.067Z,3.60
2022-08-26T08:24:11.605Z,3.50
2022-08-26T08:26:39.361Z,3.90
2022-08-26T08:29:08.498Z,4.00
2022-08-26T08:31:56.845Z,4.10
2022-08-26T08:34:24.515Z,3.60
2022-08-26T08:36:53.485Z,3.70
2022-08-26T08:39:20.754Z,3.50
2022-08-26T08:42:20.487Z,3.60
2022-08-26T08:44:54.007Z,3.80
2022-08-26T08:47:39.396Z,3.90
2022-08-26T08:50:12.364Z,3.00
2022-08-26T08:55:13.662Z,3.00
2022-08-26T09:00:18.182Z,3.20
2022-08-26T09:02:53.109Z,3.40
2022-08-26T09:05:42.597Z,3.00
2022-08-26T09:08:19.727Z,3.30
2022-08-26T09:10:53.961Z,2.60
2022-08-26T09:13:24.898Z,2.80
2022-08-26T09:16:13.968Z,2.90
2022-08-26T09:19:00.636Z,2.90
2022-08-26T09:21:29.957Z,2.90
2022-08-26T09:23:57.656Z,3.00
2022-08-26T09:26:39.952Z,2.70
2022-08-26T09:31:52.387Z,2.80
2022-08-26T09:34:23.202Z,3.10
2022-08-26T09:36:53.741Z,2.80
2022-08-26T09:39:25.976Z,3.00
2022-08-26T09:42:25.692Z,2.30
2022-08-26T09:44:54.459Z,2.60
2022-08-26T09:47:39.067Z,2.30
2022-08-26T09:50:28.888Z,2.30
2022-08-26T09:53:09.901Z,2.30
2022-08-26T09:55:42.613Z,2.40
2022-08-26T09:58:14.728Z,2.60
2022-08-26T10:00:52.915Z,2.30
2022-08-26T10:03:33.007Z,2.60
2022-08-26T10:06:04.481Z,2.50
2022-08-26T10:08:34.494Z,2.40
2022-08-26T10:11:05.613Z,2.70
2022-08-26T10:13:41.125Z,2.40
2022-08-26T10:16:22.374Z,2.20
2022-08-26T10:18:59.906Z,2.30
2022-08-26T10:21:35.559Z,2.90
2022-08-26T10:24:04.532Z,2.60
2022-08-26T10:26:43.286Z,2.40
2022-08-26T10:29:19.994Z,1.90
2022-08-26T10:32:10.480Z,2.00
2022-08-26T10:34:40.846Z,2.00
2022-08-26T10:37:21.612Z,2.20
2022-08-26T10:39:58.685Z,2.30
2022-08-26T10:42:40.644Z,1.80
2022-08-26T10:45:15.304Z,2.20
2022-08-26T10:47:46.304Z,2.00
2022-08-26T10:50:15.089Z,2.30
2022-08-26T10:53:08.751Z,2.20
2022-08-26T10:55:54.950Z,2.40
2022-08-26T10:58:45.650Z,2.00
2022-08-26T11:01:50.847Z,2.20
2022-08-26T11:04:47.086Z,2.10
2022-08-26T11:07:33.257Z,2.20
2022-08-26T11:10:17.390Z,2.20
2022-08-26T11:12:49.291Z,2.20
2022-08-26T11:15:32.151Z,2.20
2022-08-26T11:18:04.408Z,2.10
2022-08-26T11:20:47.339Z,1.80
2022-08-26T11:23:23.224Z,1.90
2022-08-26T11:25:59.831Z,1.90
2022-08-26T11:28:44.031Z,1.70
2022-08-26T11:31:31.763Z,2.10
2022-08-26T11:34:07.235Z,2.00
2022-08-26T11:36:47.792Z,2.20
2022-08-26T11:39:18.492Z,1.90
2022-08-26T11:41:49.512Z,2.10
2022-08-26T11:44:24.845Z,2.00
2022-08-26T11:46:57.073Z,1.90
2022-08-26T11:49:25.023Z,1.70
2022-08-26T11:51:52.098Z,2.10
2022-08-26T11:54:35.353Z,2.30
2022-08-26T11:57:09.417Z,2.10
2022-08-26T11:59:41.396Z,1.70
2022-08-26T12:02:17.750Z,2.30
2022-08-26T12:04:49.902Z,2.00
2022-08-26T12:07:24.162Z,2.50
2022-08-26T12:09:56.552Z,2.00
2022-08-26T12:12:26.901Z,1.80
2022-08-26T12:15:10.724Z,2.20
2022-08-26T12:17:39.505Z,1.90
2022-08-26T12:20:19.244Z,2.00
2022-08-26T12:22:48.273Z,2.10
2022-08-26T12:25:23.980Z,1.90
2022-08-26T12:27:54.040Z,1.80
2022-08-26T12:30:26.205Z,1.90
2022-08-26T12:33:15.756Z,2.00
2022-08-26T12:35:54.304Z,2.20
2022-08-26T12:38:22.792Z,2.00
2022-08-26T12:40:50.425Z,2.10
2022-08-26T12:43:39.469Z,2.20
2022-08-26T12:46:09.140Z,2.20
2022-08-26T12:48:40.975Z,2.50
2022-08-26T12:51:16.488Z,2.60
2022-08-26T12:53:44.772Z,2.20
2022-08-26T12:56:38.871Z,2.40
2022-08-26T12:59:22.844Z,2.30
2022-08-26T13:01:50.358Z,2.70
2022-08-26T13:04:41.328Z,2.30
2022-08-26T13:07:25.087Z,2.40
2022-08-26T13:09:54.995Z,2.60
2022-08-26T13:12:24.654Z,2.40
2022-08-26T13:14:51.617Z,2.20
2022-08-26T13:17:18.468Z,2.80
2022-08-26T13:19:45.330Z,2.30
2022-08-26T13:22:13.864Z,2.50
2022-08-26T13:24:43.711Z,2.30
2022-08-26T13:27:13.213Z,2.80
2022-08-26T13:29:41.549Z,3.10
2022-08-26T13:32:09.306Z,3.20
2022-08-26T13:34:37.636Z,2.20
2022-08-26T13:37:05.315Z,2.70
2022-08-26T13:39:33.249Z,2.50
2022-08-26T13:42:00.313Z,2.50
2022-08-26T13:44:27.723Z,2.60
2022-08-26T13:46:54.853Z,2.60
2022-08-26T13:49:22.796Z,2.50
2022-08-26T13:51:49.896Z,2.20
2022-08-26T13:54:16.775Z,2.50
2022-08-26T13:56:43.759Z,2.50
2022-08-26T13:59:10.908Z,2.10
2022-08-26T14:01:40.264Z,3.00
2022-08-26T14:04:08.554Z,2.40
2022-08-26T14:06:35.893Z,2.90
2022-08-26T14:09:03.066Z,2.60
2022-08-26T14:11:30.334Z,2.50
2022-08-26T14:14:13.711Z,2.00
2022-08-26T14:16:59.023Z,4.20
2022-08-26T14:19:28.166Z,2.30
2022-08-26T14:21:55.057Z,2.30
2022-08-26T14:24:22.595Z,2.50
2022-08-26T14:26:49.433Z,2.30
2022-08-26T14:29:16.904Z,2.20
2022-08-26T14:31:44.428Z,2.80
2022-08-26T14:34:13.969Z,2.20
2022-08-26T14:36:40.901Z,2.30
2022-08-26T14:39:10.683Z,2.40
2022-08-26T14:41:44.932Z,2.20
2022-08-26T14:44:14.683Z,2.30
2022-08-26T14:46:49.041Z,2.30
2022-08-26T14:49:17.739Z,2.50
2022-08-26T14:51:45.068Z,3.00
2022-08-26T14:54:13.743Z,2.60
2022-08-26T14:57:01.163Z,2.40
2022-08-26T14:59:32.129Z,3.00
2022-08-26T15:02:00.650Z,2.50
2022-08-26T15:04:28.745Z,3.00
2022-08-26T15:06:58.907Z,2.60
2022-08-26T15:09:26.700Z,2.30
2022-08-26T15:11:53.620Z,2.10
2022-08-26T15:14:21.689Z,2.70
2022-08-26T15:16:50.322Z,2.40
2022-08-26T15:19:18.507Z,2.10
2022-08-26T15:21:47.540Z,2.30
2022-08-26T15:24:16.660Z,2.30
2022-08-26T15:26:44.937Z,2.40
2022-08-26T15:29:11.904Z,2.70
2022-08-26T15:31:39.184Z,2.80
2022-08-26T15:34:13.150Z,2.80
2022-08-26T15:36:45.769Z,2.70
2022-08-26T15:39:13.850Z,2.70
2022-08-26T15:41:41.209Z,3.10
2022-08-26T15:44:08.391Z,2.80
2022-08-26T15:46:36.406Z,2.50
2022-08-26T15:49:05.142Z,2.60
2022-08-26T15:51:35.820Z,2.70
2022-08-26T15:54:13.660Z,3.00
2022-08-26T15:56:40.630Z,2.90
2022-08-26T15:59:08.222Z,2.90
2022-08-26T16:01:35.731Z,3.80
2022-08-26T16:04:03.930Z,4.10
2022-08-26T16:06:33.929Z,3.00
2022-08-26T16:09:01.443Z,2.80
2022-08-26T16:11:28.731Z,2.80
2022-08-26T16:13:56.059Z,3.10
2022-08-26T16:16:23.426Z,2.80
2022-08-26T16:18:50.501Z,3.10
2022-08-26T16:21:20.183Z,3.00
2022-08-26T16:23:47.469Z,3.10
2022-08-26T16:26:17.756Z,2.90
2022-08-26T16:28:45.134Z,2.80
2022-08-26T16:31:12.234Z,3.00
2022-08-26T16:33:39.345Z,2.70
2022-08-26T16:36:08.417Z,3.20
2022-08-26T16:38:36.299Z,2.90
2022-08-26T16:41:04.432Z,3.20
2022-08-26T16:43:31.506Z,3.30
2022-08-26T16:45:58.700Z,3.10
2022-08-26T16:48:26.953Z,3.70
2022-08-26T16:50:55.752Z,3.80
2022-08-26T16:53:23.496Z,3.40
2022-08-26T16:55:51.387Z,3.70
2022-08-26T16:58:20.402Z,3.50
2022-08-26T17:00:49.114Z,3.70
2022-08-26T17:03:16.040Z,3.70
2022-08-26T17:05:42.928Z,3.70
2022-08-26T17:08:10.218Z,3.90
2022-08-26T17:10:37.796Z,3.70
2022-08-26T17:13:04.989Z,4.30
2022-08-26T17:15:32.043Z,4.60
2022-08-26T17:17:59.215Z,4.10
2022-08-26T17:20:26.775Z,4.50
2022-08-26T17:22:56.061Z,5.50
2022-08-26T17:25:28.064Z,5.40
2022-08-26T17:30:27.127Z,4.40
2022-08-26T17:32:56.983Z,4.00
2022-08-26T17:35:24.733Z,4.80
2022-08-26T17:37:52.891Z,5.00
2022-08-26T17:40:24.150Z,4.40
2022-08-26T17:42:51.945Z,4.10
2022-08-26T17:47:48.271Z,4.30
2022-08-26T17:50:17.135Z,4.20
2022-08-26T17:52:45.154Z,4.30
2022-08-26T17:55:15.150Z,4.30
2022-08-26T17:57:44.746Z,4.80
2022-08-26T18:00:23.593Z,4.70
2022-08-26T18:02:50.502Z,4.60
2022-08-26T18:05:17.926Z,4.20
2022-08-26T18:07:45.151Z,4.50
2022-08-26T18:10:15.572Z,4.70
2022-08-26T18:12:43.093Z,4.70
2022-08-26T18:15:11.658Z,4.50
2022-08-26T18:17:39.417Z,4.80
2022-08-26T18:20:09.683Z,4.70
2022-08-26T18:22:36.579Z,4.80
2022-08-26T18:25:05.415Z,4.40
2022-08-26T18:27:32.854Z,4.20
2022-08-26T18:30:00.306Z,4.40
2022-08-26T18:32:27.495Z,5.00
2022-08-26T18:34:54.474Z,4.60
2022-08-26T18:37:21.362Z,4.50
2022-08-26T18:39:48.778Z,4.80
2022-08-26T18:42:15.612Z,4.40
2022-08-26T18:44:42.632Z,4.60
2022-08-26T18:47:09.481Z,4.50
2022-08-26T18:49:36.695Z,4.50
2022-08-26T18:52:05.533Z,4.90
2022-08-26T18:54:32.684Z,4.30
2022-08-26T18:56:59.642Z,4.70
2022-08-26T18:59:29.688Z,4.70
2022-08-26T19:01:57.921Z,4.80
2022-08-26T19:04:26.060Z,4.90
2022-08-26T19:06:53.420Z,5.10
2022-08-26T19:09:21.098Z,4.50
2022-08-26T19:11:49.692Z,5.10
2022-08-26T19:14:17.478Z,5.10
2022-08-26T19:16:48.765Z,5.10
2022-08-26T19:19:16.235Z,5.30
2022-08-26T19:21:43.764Z,4.70
2022-08-26T19:24:17.544Z,4.70
2022-08-26T19:29:13.816Z,5.10
2022-08-26T19:31:42.305Z,4.90
2022-08-26T19:34:11.321Z,5.40
2022-08-26T19:36:38.916Z,5.40
2022-08-26T19:39:09.995Z,5.00
2022-08-26T19:41:39.194Z,5.00
2022-08-26T19:44:11.534Z,5.60
2022-08-26T19:49:10.723Z,5.90
2022-08-26T19:51:37.795Z,5.50
2022-08-26T19:54:04.975Z,6.10
2022-08-26T19:56:31.880Z,6.30
2022-08-26T19:58:58.871Z,6.30
2022-08-26T20:01:25.818Z,5.80
2022-08-26T20:03:53.058Z,5.80
2022-08-26T20:06:20.910Z,4.80
2022-08-26T20:08:50.818Z,5.40
2022-08-26T20:11:20.765Z,6.20
2022-08-26T20:13:48.286Z,5.60
2022-08-26T20:16:16.253Z,5.80
2022-08-26T20:21:45.878Z,5.90
2022-08-26T20:24:16.231Z,5.80
2022-08-26T20:26:44.695Z,5.90
2022-08-26T20:29:15.610Z,5.80
2022-08-26T20:31:44.272Z,5.90
2022-08-26T20:34:13.574Z,6.00
2022-08-26T20:36:41.583Z,6.10
2022-08-26T20:39:10.589Z,6.50
2022-08-26T20:41:38.162Z,6.60
2022-08-26T20:44:05.927Z,5.60
2022-08-26T20:46:34.999Z,5.60
2022-08-26T20:49:02.496Z,6.10
2022-08-26T20:51:33.823Z,6.70
2022-08-26T20:54:01.653Z,6.20
2022-08-26T20:56:28.578Z,6.50
2022-08-26T20:58:59.423Z,6.50
2022-08-26T21:01:33.674Z,6.40
2022-08-26T21:04:03.655Z,5.90
2022-08-26T21:06:32.748Z,5.80
2022-08-26T21:09:01.566Z,6.20
2022-08-26T21:11:29.404Z,6.40
2022-08-26T21:14:06.805Z,6.20
2022-08-26T21:16:43.565Z,6.10
2022-08-26T21:19:13.920Z,6.00
2022-08-26T21:21:42.049Z,5.90
2022-08-26T21:24:09.574Z,6.00
2022-08-26T21:26:37.305Z,6.00
2022-08-26T21:29:06.806Z,6.60
2022-08-26T21:31:35.164Z,6.60
2022-08-26T21:34:02.121Z,6.30
2022-08-26T21:36:29.143Z,6.50
2022-08-26T21:38:58.069Z,6.80
2022-08-26T21:41:26.208Z,6.70
2022-08-26T21:43:56.018Z,5.60
2022-08-26T21:46:25.248Z,5.90
2022-08-26T21:48:57.193Z,6.50
2022-08-26T21:51:25.867Z,6.20
2022-08-26T21:53:53.100Z,6.50
2022-08-26T21:56:21.653Z,6.60
2022-08-26T21:58:48.709Z,6.70
2022-08-26T22:01:22.659Z,6.30
2022-08-26T22:03:52.345Z,6.30
2022-08-26T22:06:22.550Z,6.20
2022-08-26T22:08:50.169Z,6.40
2022-08-26T22:11:19.686Z,6.60
2022-08-26T22:13:48.907Z,6.60
2022-08-26T22:16:16.409Z,7.80
2022-08-26T22:18:46.037Z,7.40
2022-08-26T22:21:17.347Z,7.80
2022-08-26T22:23:46.092Z,7.60
2022-08-26T22:26:16.221Z,7.40
2022-08-26T22:28:58.531Z,6.60
2022-08-26T22:31:37.056Z,7.20
2022-08-26T22:34:09.405Z,7.00
2022-08-26T22:36:43.213Z,7.20
2022-08-26T22:39:13.756Z,7.80
2022-08-26T22:41:43.097Z,7.40
2022-08-26T22:44:11.833Z,7.20
2022-08-26T22:46:40.112Z,7.30
2022-08-26T22:49:09.721Z,6.80
2022-08-26T22:51:36.814Z,6.80
2022-08-26T22:54:04.920Z,6.50
2022-08-26T22:56:31.900Z,7.70
2022-08-26T22:58:58.744Z,8.10
2022-08-26T23:01:25.943Z,7.60
2022-08-26T23:03:53.694Z,8.10
2022-08-26T23:06:20.732Z,8.00
2022-08-26T23:08:47.877Z,7.30
2022-08-26T23:11:15.084Z,7.50
2022-08-26T23:13:42.582Z,7.50
2022-08-26T23:16:11.739Z,7.70
2022-08-26T23:18:40.896Z,7.90
2022-08-26T23:21:09.063Z,8.00
2022-08-26T23:23:36.614Z,7.70
2022-08-26T23:26:06.298Z,8.00
2022-08-26T23:28:34.619Z,7.70
2022-08-26T23:31:01.886Z,7.90
2022-08-26T23:33:49.018Z,8.60
2022-08-26T23:36:18.151Z,8.50
2022-08-26T23:38:52.351Z,9.40
2022-08-26T23:41:22.516Z,8.10
2022-08-26T23:43:49.969Z,7.70
2022-08-26T23:46:17.759Z,7.50
2022-08-26T23:48:45.055Z,7.10
2022-08-26T23:51:27.816Z,7.40
2022-08-26T23:53:54.999Z,7.70
2022-08-26T23:56:21.870Z,8.00
2022-08-26T23:58:48.771Z,8.10
